Time;durP1;ratioP1;P1;durP2;ratioP2;P2;SDS_P1;SDS_P2;PMS_P1;PMS_P2;Temp;Humidity;BMP_temperature;BMP_pressure;BME280_temperature;BME280_humidity;BME280_pressure;Samples;Min_cycle;Max_cycle;Signal;HPM_P1;HPM_P2
2022/07/26 00:00:15;;;;;;;3.97;1.80;;;17.60;1.40;;;18.99;100.00;95317.29;646819;216;31587;-75
2022/07/26 00:02:56;;;;;;;1.42;0.80;;;17.70;1.40;;;19.02;100.00;95315.42;646925;216;32218;-74
2022/07/26 00:05:38;;;;;;;1.30;1.20;;;17.70;1.40;;;19.08;100.00;95313.76;646856;216;31513;-74
2022/07/26 00:08:19;;;;;;;1.73;0.93;;;17.70;1.40;;;19.16;100.00;95318.12;647714;216;31506;-74
2022/07/26 00:11:04;;;;;;;1.62;1.23;;;17.80;1.40;;;19.07;100.00;95325.14;647466;216;31770;-74
2022/07/26 00:13:46;;;;;;;1.60;1.00;;;17.70;1.40;;;19.02;100.00;95329.77;645378;216;31485;-74
2022/07/26 00:16:27;;;;;;;1.40;1.10;;;17.70;1.40;;;19.00;100.00;95334.36;646608;216;31549;-74
2022/07/26 00:19:09;;;;;;;1.10;0.88;;;17.70;1.40;;;19.00;100.00;95336.08;646854;216;31920;-75
2022/07/26 00:22:32;;;;;;;1.20;0.98;;;17.60;1.40;;;18.94;100.00;95335.25;647153;212;32666;-76
2022/07/26 00:24:33;;;;;;;2.67;1.02;;;17.60;1.40;;;18.95;100.00;95324.12;647595;215;31472;-75
2022/07/26 00:27:16;;;;;;;5.60;1.97;;;17.60;1.40;;;18.94;100.00;95317.69;646608;216;31580;-74
2022/07/26 00:29:58;;;;;;;1.67;1.50;;;17.60;1.40;;;18.92;100.00;95311.64;648320;216;31570;-76
2022/07/26 00:32:40;;;;;;;1.67;1.20;;;17.60;1.40;;;18.89;100.00;95301.34;646545;216;31475;-74
2022/07/26 00:35:51;;;;;;;1.60;1.10;;;17.60;1.40;;;18.91;100.00;95286.54;646124;216;42171;-75
2022/07/26 00:38:33;;;;;;;2.15;1.00;;;17.60;1.40;;;18.88;100.00;95276.25;646403;216;31475;-75
2022/07/26 00:41:17;;;;;;;6.90;0.60;;;17.50;1.40;;;18.84;100.00;95269.75;646470;212;31589;-75
2022/07/26 00:44:00;;;;;;;3.30;1.08;;;17.50;1.40;;;18.83;100.00;95267.81;645962;216;32082;-75
2022/07/26 00:46:41;;;;;;;1.98;1.30;;;17.50;1.40;;;18.81;100.00;95269.42;646007;212;31693;-76
2022/07/26 00:49:23;;;;;;;1.10;1.00;;;17.50;1.40;;;18.84;100.00;95270.66;647303;212;31507;-75
2022/07/26 00:52:05;;;;;;;1.23;1.00;;;17.50;1.40;;;18.85;100.00;95262.41;647696;216;31494;-74
2022/07/26 00:54:47;;;;;;;1.48;0.60;;;17.50;1.40;;;18.87;100.00;95260.59;618868;225;31896;-74
2022/07/26 00:57:29;;;;;;;1.33;1.23;;;17.50;1.40;;;18.87;100.00;95257.20;645956;216;31539;-74
2022/07/26 01:00:12;;;;;;;0.90;0.90;;;17.50;1.40;;;18.92;100.00;95255.66;618661;226;31953;-75
2022/07/26 01:02:53;;;;;;;3.00;1.12;;;17.50;1.40;;;18.91;100.00;95251.59;646490;216;31521;-74
2022/07/26 01:05:35;;;;;;;1.80;1.60;;;17.50;1.40;;;18.95;100.00;95249.64;646909;216;31490;-75
2022/07/26 01:08:18;;;;;;;1.60;1.50;;;17.60;1.40;;;18.97;100.00;95255.96;646570;216;31503;-74
2022/07/26 01:10:59;;;;;;;2.08;1.75;;;17.60;1.40;;;18.93;100.00;95260.36;647454;216;31567;-74
2022/07/26 01:13:46;;;;;;;4.37;1.35;;;17.50;1.40;;;18.89;100.00;95257.24;644580;212;31606;-74
2022/07/26 01:16:27;;;;;;;0.80;0.70;;;17.50;1.40;;;18.87;100.00;95255.94;646841;216;31556;-75
2022/07/26 01:19:09;;;;;;;2.03;1.10;;;17.50;1.40;;;18.84;100.00;95260.93;646931;216;31540;-75
2022/07/26 01:21:51;;;;;;;1.23;1.12;;;17.50;1.40;;;18.82;100.00;95263.12;633189;221;31679;-74
2022/07/26 01:24:33;;;;;;;0.90;0.60;;;17.50;1.40;;;18.83;100.00;95267.69;646897;216;31569;-75
2022/07/26 01:27:14;;;;;;;1.00;0.70;;;17.50;1.40;;;18.83;100.00;95268.92;646303;216;31530;-75
2022/07/26 01:29:59;;;;;;;1.20;1.00;;;17.50;1.40;;;18.85;100.00;95272.30;645787;216;31482;-75
2022/07/26 01:32:41;;;;;;;0.88;0.73;;;17.50;1.40;;;18.79;100.00;95273.67;647402;212;31482;-75
2022/07/26 01:35:51;;;;;;;1.00;0.70;;;17.40;1.40;;;18.77;100.00;95276.78;619044;226;31925;-75
2022/07/26 01:38:36;;;;;;;1.70;1.25;;;17.50;1.40;;;18.82;100.00;95273.59;647265;216;31820;-75
2022/07/26 01:41:18;;;;;;;1.10;1.00;;;17.50;1.40;;;18.85;100.00;95268.30;645908;212;31553;-75
2022/07/26 01:43:59;;;;;;;;;;;17.50;1.40;;;18.85;100.00;95266.98;653381;216;24810;-75
2022/07/26 01:46:40;;;;;;;;;;;17.50;1.40;;;18.85;100.00;95273.16;651668;216;24906;-75
2022/07/26 01:49:25;;;;;;;;;;;17.50;1.40;;;18.84;100.00;95267.64;652271;212;24814;-76
2022/07/26 01:52:06;;;;;;;;;;;17.50;1.40;;;18.83;100.00;95267.23;653404;212;24806;-76
2022/07/26 01:54:47;;;;;;;;;;;17.50;1.40;;;18.82;100.00;95262.50;654454;216;25231;-76
2022/07/26 01:57:32;;;;;;;;;;;17.50;1.40;;;18.85;100.00;95264.47;653107;216;25212;-75
2022/07/26 02:00:14;;;;;;;;;;;17.50;1.40;;;18.87;100.00;95259.52;652787;216;24826;-75
2022/07/26 02:02:55;;;;;;;;;;;17.50;1.40;;;18.87;100.00;95253.13;653130;216;24808;-75
2022/07/26 02:05:36;;;;;;;;;;;17.50;1.40;;;18.87;100.00;95260.92;652498;216;24832;-75
2022/07/26 02:08:18;;;;;;;;;;;17.50;1.40;;;18.84;100.00;95265.63;653135;212;24811;-76
2022/07/26 02:11:02;;;;;;;;;;;17.50;1.40;;;18.84;100.00;95270.81;653111;212;24817;-76
2022/07/26 02:13:44;;;;;;;;;;;17.50;1.40;;;18.81;100.00;95273.02;653525;216;24816;-75
2022/07/26 02:16:25;;;;;;;;;;;17.50;1.40;;;18.76;100.00;95275.72;652457;216;25766;-75
2022/07/26 02:19:09;;;;;;;;;;;17.40;1.40;;;18.73;100.00;95273.75;654481;216;25283;-75
2022/07/26 02:21:50;;;;;;;;;;;17.40;1.40;;;18.73;100.00;95276.76;653217;216;24735;-75
2022/07/26 02:24:32;;;;;;;;;;;17.40;1.40;;;18.74;100.00;95273.45;654347;216;24825;-75
2022/07/26 02:27:13;;;;;;;;;;;17.40;1.40;;;18.78;100.00;95274.11;652677;216;24925;-75
2022/07/26 02:29:54;;;;;;;;;;;17.50;1.40;;;18.80;100.00;95278.58;653284;216;24845;-75
2022/07/26 02:32:41;;;;;;;;;;;17.50;1.40;;;18.85;100.00;95282.15;652895;216;24853;-75
2022/07/26 02:35:51;;;;;;;1.40;0.80;;;17.50;1.40;;;18.85;100.00;95280.34;645909;212;31567;-76
2022/07/26 02:38:33;;;;;;;2.78;1.17;;;17.50;1.40;;;18.87;100.00;95281.73;645563;216;31510;-74
2022/07/26 02:41:15;;;;;;;1.23;0.90;;;17.50;1.40;;;18.89;100.00;95282.38;619760;226;32164;-75
2022/07/26 02:43:59;;;;;;;1.20;1.00;;;17.50;1.40;;;18.89;100.00;95285.64;647268;212;32016;-76
2022/07/26 02:46:41;;;;;;;0.73;0.73;;;17.50;1.40;;;18.89;100.00;95281.84;645533;215;31700;-75
2022/07/26 02:49:23;;;;;;;0.67;0.67;;;17.50;1.40;;;18.84;100.00;95276.50;646554;216;31481;-75
2022/07/26 02:52:05;;;;;;;0.90;0.90;;;17.40;1.40;;;18.78;100.00;95278.68;646613;216;31467;-74
2022/07/26 02:54:47;;;;;;;1.23;1.00;;;17.40;1.40;;;18.72;100.00;95274.04;647597;212;31555;-76
2022/07/26 02:57:28;;;;;;;1.20;0.98;;;17.20;1.40;;;18.70;100.00;95268.77;645223;216;31498;-75
2022/07/26 03:00:11;;;;;;;1.80;0.90;;;17.20;1.40;;;18.66;100.00;95263.14;647215;216;31602;-76
2022/07/26 03:02:53;;;;;;;1.55;1.30;;;17.20;1.40;;;18.59;100.00;95255.77;645926;216;31621;-74
2022/07/26 03:05:34;;;;;;;;;;;17.10;1.40;;;18.61;100.00;95256.81;653525;216;25613;-75
2022/07/26 03:08:15;;;;;;;;;;;17.10;1.40;;;18.60;100.00;95261.48;653625;216;24846;-76
2022/07/26 03:10:57;;;;;;;;;;;17.10;1.40;;;18.57;100.00;95263.97;649669;216;24812;-76
2022/07/26 03:13:41;;;;;;;;;;;17.10;1.40;;;18.54;100.00;95271.52;622148;226;24882;-74
2022/07/26 03:16:23;;;;;;;;;;;17.10;1.40;;;18.52;100.00;95269.58;651829;216;24806;-75
2022/07/26 03:19:04;;;;;;;;;;;17.10;1.40;;;18.55;100.00;95271.52;622429;227;24864;-75
2022/07/26 03:21:45;;;;;;;;;;;17.10;1.40;;;18.50;100.00;95275.19;652892;216;24725;-76
2022/07/26 03:24:30;;;;;;;;;;;17.10;1.40;;;18.50;100.00;95276.70;653260;212;24772;-75
2022/07/26 03:27:11;;;;;;;;;;;17.10;1.40;;;18.50;100.00;95269.46;652637;216;24826;-75
2022/07/26 03:29:55;;;;;;;;;;;17.20;1.40;;;18.53;100.00;95273.24;652526;212;24828;-75
2022/07/26 03:32:37;;;;;;;;;;;17.20;1.40;;;18.52;100.00;95273.70;653740;212;24813;-74
2022/07/26 03:35:54;;;;;;;1.50;0.90;;;17.30;1.40;;;18.51;100.00;95271.80;646528;216;31612;-75
2022/07/26 03:38:36;;;;;;;1.00;0.60;;;17.40;1.40;;;18.54;100.00;95261.25;646885;216;31518;-76
2022/07/26 03:41:20;;;;;;;1.45;1.35;;;17.40;1.40;;;18.50;100.00;95254.22;619670;226;31940;-75
2022/07/26 03:44:02;;;;;;;1.23;1.12;;;17.40;1.40;;;18.52;100.00;95248.62;647145;212;31577;-76
2022/07/26 03:46:44;;;;;;;2.00;0.88;;;17.40;1.40;;;18.52;100.00;95250.05;647271;212;31512;-75
2022/07/26 03:49:26;;;;;;;6.30;1.20;;;17.40;1.40;;;18.49;100.00;95252.91;619459;225;31862;-74
2022/07/26 03:52:09;;;;;;;1.70;0.80;;;17.40;1.40;;;18.53;100.00;95262.95;620053;225;31924;-75
2022/07/26 03:54:49;;;;;;;0.70;0.60;;;17.50;1.40;;;18.53;100.00;95268.42;648323;216;31590;-75
2022/07/26 03:57:31;;;;;;;1.60;1.20;;;17.50;1.40;;;18.54;100.00;95272.38;618206;226;31859;-75
2022/07/26 04:00:13;;;;;;;3.90;1.40;;;17.40;1.40;;;18.55;100.00;95267.84;646518;216;32071;-75
2022/07/26 04:02:55;;;;;;;1.42;0.85;;;17.40;1.40;;;18.56;100.00;95258.49;645715;212;31644;-75
2022/07/26 04:05:36;;;;;;;1.35;0.90;;;17.40;1.40;;;18.64;100.00;95261.91;642891;215;31763;-75
2022/07/26 04:08:18;;;;;;;1.52;0.60;;;17.50;1.40;;;18.71;100.00;95265.44;618054;226;31975;-75
2022/07/26 04:11:03;;;;;;;0.70;0.70;;;17.50;1.40;;;18.70;100.00;95271.28;646869;216;31921;-75
2022/07/26 04:16:19;;;;;;;2.67;1.70;;;17.50;1.40;;;18.75;100.00;95276.01;646239;216;31564;-76
2022/07/26 04:19:01;;;;;;;1.62;0.95;;;17.50;1.40;;;18.72;100.00;95284.26;645978;216;31646;-75
2022/07/26 04:24:17;;;;;;;0.65;0.52;;;17.50;1.40;;;18.65;100.00;95290.33;619165;226;31897;-75
2022/07/26 04:26:58;;;;;;;1.58;0.90;;;17.50;1.40;;;18.72;100.00;95288.34;645941;216;31843;-76
2022/07/26 04:32:15;;;;;;;0.70;0.70;;;17.60;1.40;;;18.85;100.00;95284.58;648380;212;32109;-75
2022/07/26 04:35:51;;;;;;;1.67;0.93;;;17.70;1.40;;;18.97;100.00;95283.87;645779;212;31545;-75
2022/07/26 04:38:33;;;;;;;3.03;0.88;;;17.70;1.40;;;19.09;100.00;95284.23;617597;226;31873;-75
2022/07/26 04:41:15;;;;;;;1.10;0.70;;;17.80;1.40;;;19.13;100.00;95280.34;619420;222;33461;-75
2022/07/26 04:43:57;;;;;;;1.90;1.47;;;17.80;1.40;;;19.08;100.00;95282.02;648006;216;31693;-75
2022/07/26 04:46:38;;;;;;;1.73;0.80;;;17.80;1.40;;;18.97;100.00;95283.70;646039;212;31512;-75
2022/07/26 04:49:23;;;;;;;2.30;1.05;;;17.80;1.40;;;19.12;100.00;95281.22;646952;216;31513;-76
2022/07/26 04:52:05;;;;;;;0.90;0.90;;;17.80;1.40;;;18.95;100.00;95280.05;645797;216;31505;-75
2022/07/26 04:54:47;;;;;;;1.20;1.10;;;17.90;1.40;;;19.17;100.00;95283.66;620111;222;32097;-76
2022/07/26 04:57:28;;;;;;;2.50;1.23;;;17.90;1.40;;;19.12;100.00;95286.62;646231;216;31481;-75
2022/07/26 05:00:10;;;;;;;1.25;1.00;;;17.90;1.40;;;19.19;100.00;95291.48;646570;216;32173;-75
2022/07/26 05:02:54;;;;;;;1.20;1.10;;;17.90;1.40;;;19.06;100.00;95289.85;646253;216;31519;-75
2022/07/26 05:05:35;;;;;;;1.27;1.08;;;17.90;1.40;;;19.12;100.00;95291.94;647740;216;31551;-75
2022/07/26 05:08:18;;;;;;;0.90;0.60;;;17.90;1.40;;;19.13;100.00;95291.72;645707;212;31527;-76
2022/07/26 05:10:59;;;;;;;1.52;1.42;;;17.90;1.40;;;19.12;100.00;95293.58;646745;216;31556;-75
2022/07/26 05:13:41;;;;;;;2.70;1.20;;;17.90;1.40;;;19.14;100.00;95291.55;646956;216;42271;-76
2022/07/26 05:16:23;;;;;;;0.70;0.70;;;17.90;1.40;;;19.16;100.00;95294.62;646228;216;31551;-76
2022/07/26 05:19:04;;;;;;;1.45;1.10;;;17.90;1.40;;;18.97;100.00;95291.13;645144;216;31519;-75
2022/07/26 05:21:46;;;;;;;0.98;0.88;;;17.90;1.40;;;19.01;100.00;95286.41;647473;216;31551;-76
2022/07/26 05:24:28;;;;;;;1.17;1.08;;;17.80;1.40;;;19.03;100.00;95294.98;619122;222;32282;-76
2022/07/26 05:27:10;;;;;;;1.08;0.98;;;17.80;1.40;;;19.01;100.00;95292.84;646507;216;31480;-75
2022/07/26 05:29:52;;;;;;;1.00;0.50;;;17.80;1.40;;;19.02;100.00;95297.37;619929;226;32115;-75
2022/07/26 05:32:34;;;;;;;1.90;1.40;;;17.80;1.40;;;18.99;100.00;95297.01;647150;216;31607;-75
2022/07/26 05:35:55;;;;;;;1.25;1.15;;;17.80;1.40;;;19.00;100.00;95293.25;646733;216;31756;-76
2022/07/26 05:38:36;;;;;;;1.20;0.80;;;17.80;1.40;;;18.91;100.00;95300.39;645787;216;31512;-76
2022/07/26 05:41:18;;;;;;;0.98;0.88;;;17.70;1.40;;;18.96;100.00;95294.56;646433;215;31569;-76
2022/07/26 05:44:06;;;;;;;1.70;1.40;;;17.70;1.40;;;18.99;100.00;95293.80;645752;212;31569;-71
2022/07/26 05:46:47;;;;;;;0.70;0.50;;;17.70;1.40;;;19.03;100.00;95287.84;647367;212;31667;-72
2022/07/26 05:49:34;;;;;;;1.60;1.50;;;17.80;1.40;;;19.02;100.00;95295.35;648043;215;31655;-71
2022/07/26 05:52:16;;;;;;;1.48;1.37;;;17.90;1.40;;;19.08;100.00;95300.40;645904;216;42183;-71
2022/07/26 05:54:58;;;;;;;1.40;1.00;;;18.00;1.40;;;18.99;100.00;95308.09;635504;216;31772;-72
2022/07/26 06:00:14;;;;;;;3.83;1.00;;;18.00;1.40;;;19.05;100.00;95310.09;618756;226;31917;-71
2022/07/26 06:02:56;;;;;;;1.67;1.08;;;18.00;1.40;;;19.05;100.00;95311.30;646599;216;31510;-71
2022/07/26 06:05:40;;;;;;;2.03;1.77;;;18.00;1.40;;;19.11;100.00;95310.41;647280;216;31567;-73
2022/07/26 06:08:22;;;;;;;1.83;1.17;;;18.00;1.40;;;19.16;100.00;95313.87;645708;216;31548;-71
2022/07/26 06:11:04;;;;;;;1.30;1.05;;;18.10;1.40;;;19.16;100.00;95318.45;647012;216;31727;-76
2022/07/26 06:13:46;;;;;;;1.60;1.30;;;18.00;1.40;;;19.09;100.00;95316.68;647351;216;31486;-76
2022/07/26 06:16:27;;;;;;;1.70;1.00;;;18.00;1.40;;;19.10;100.00;95315.77;647835;212;31515;-76
2022/07/26 06:19:09;;;;;;;1.15;1.05;;;18.00;1.40;;;19.16;100.00;95315.33;646750;216;31899;-75
2022/07/26 06:21:57;;;;;;;2.28;1.10;;;18.10;1.40;;;19.24;100.00;95318.96;646003;216;32984;-77
2022/07/26 06:24:40;;;;;;;0.80;0.60;;;18.00;1.40;;;19.30;100.00;95320.59;645701;212;31509;-76
2022/07/26 06:27:24;;;;;;;1.58;1.10;;;18.10;1.40;;;19.30;100.00;95325.45;646573;216;31570;-76
2022/07/26 06:30:12;;;;;;;1.70;1.60;;;18.10;1.40;;;19.25;100.00;95325.31;646849;212;31540;-75
2022/07/26 06:32:54;;;;;;;1.15;1.05;;;18.10;1.40;;;19.19;100.00;95332.34;647568;212;31479;-75
2022/07/26 06:35:58;;;;;;;2.60;1.75;;;18.00;1.40;;;19.11;100.00;95332.30;647053;216;31536;-72
2022/07/26 06:38:39;;;;;;;1.70;1.30;;;18.00;1.40;;;19.02;100.00;95332.86;646334;212;31745;-71
2022/07/26 06:41:24;;;;;;;2.30;1.40;;;17.90;1.40;;;18.94;100.00;95332.31;647017;212;32613;-77
2022/07/26 06:44:06;;;;;;;3.17;1.58;;;17.90;1.40;;;18.93;100.00;95331.17;646670;212;31496;-76
2022/07/26 06:46:58;;;;;;;1.67;1.00;;;17.80;1.40;;;18.97;100.00;95334.69;649108;216;31597;-75
2022/07/26 06:49:40;;;;;;;1.62;1.17;;;17.80;1.40;;;18.99;100.00;95339.59;646448;216;31509;-75
2022/07/26 06:52:22;;;;;;;1.65;1.00;;;17.80;1.40;;;18.85;100.00;95341.12;646950;212;31658;-75
2022/07/26 06:55:04;;;;;;;1.30;1.20;;;17.70;1.40;;;18.73;100.00;95333.78;645592;216;32014;-75
2022/07/26 06:57:46;;;;;;;1.20;1.08;;;17.50;1.40;;;18.69;100.00;95337.95;646389;216;32330;-75
2022/07/26 07:00:28;;;;;;;3.60;1.37;;;17.50;1.40;;;18.57;100.00;95345.61;646979;216;31537;-74
2022/07/26 07:03:09;;;;;;;1.58;1.48;;;17.30;1.40;;;18.41;100.00;95352.25;647349;216;31671;-75
2022/07/26 07:05:51;;;;;;;2.78;1.02;;;17.20;1.40;;;18.21;100.00;95357.38;646819;216;32108;-75
2022/07/26 07:08:33;;;;;;;2.20;0.85;;;17.00;1.40;;;18.07;100.00;95360.98;646596;216;31481;-74
2022/07/26 07:11:17;;;;;;;0.52;0.45;;;16.80;1.40;;;17.95;100.00;95360.48;647044;216;31494;-77
2022/07/26 07:14:01;;;;;;;0.90;0.65;;;16.60;1.40;;;17.79;100.00;95356.23;645483;212;31527;-76
2022/07/26 07:16:40;;;;;;;0.70;0.50;;;16.60;1.40;;;17.69;100.00;95359.53;647058;216;31557;-76
2022/07/26 07:19:24;;;;;;;1.35;0.70;;;16.50;1.40;;;17.59;100.00;95358.13;644859;216;31665;-74
2022/07/26 07:22:12;;;;;;;1.20;0.90;;;16.40;1.40;;;17.63;100.00;95354.41;646852;212;31913;-76
2022/07/26 07:24:54;;;;;;;1.70;1.13;;;16.40;1.40;;;17.79;100.00;95350.92;646585;216;31533;-76
2022/07/26 07:27:36;;;;;;;0.50;0.50;;;16.50;1.40;;;17.96;100.00;95357.28;648061;212;31439;-77
2022/07/26 07:30:18;;;;;;;0.57;0.50;;;16.80;1.40;;;18.09;100.00;95359.05;646066;216;31559;-76
2022/07/26 07:32:59;;;;;;;0.93;0.70;;;16.80;1.40;;;18.21;100.00;95353.34;646177;212;31483;-76
2022/07/26 07:35:52;;;;;;;1.60;0.98;;;16.90;1.40;;;18.37;100.00;95350.49;646805;212;42702;-75
2022/07/26 07:38:32;;;;;;;1.00;0.82;;;17.20;1.40;;;18.40;100.00;95357.08;646613;212;31505;-75
2022/07/26 07:41:14;;;;;;;0.90;0.70;;;17.20;1.40;;;18.25;100.00;95358.39;646912;216;31608;-76
2022/07/26 07:43:56;;;;;;;1.30;1.20;;;17.10;1.40;;;18.10;100.00;95350.25;646633;212;31471;-75
2022/07/26 07:46:38;;;;;;;1.40;0.73;;;17.00;1.40;;;18.14;100.00;95351.89;646915;212;31497;-76
2022/07/26 07:49:21;;;;;;;0.90;0.80;;;16.90;1.40;;;18.29;100.00;95350.78;618226;226;32086;-76
2022/07/26 07:52:01;;;;;;;1.77;1.30;;;17.00;1.40;;;18.02;100.00;95354.00;619256;226;31813;-76
2022/07/26 07:54:43;;;;;;;1.55;0.70;;;16.80;1.40;;;17.97;100.00;95354.52;638617;212;31766;-76
2022/07/26 07:57:31;;;;;;;1.08;0.90;;;16.80;1.40;;;17.89;100.00;95360.48;646097;216;31487;-76
2022/07/26 08:00:17;;;;;;;1.25;1.10;;;16.70;1.40;;;17.85;100.00;95359.64;646470;216;31573;-76
2022/07/26 08:05:31;;;;;;;0.77;0.77;;;16.60;1.40;;;17.75;100.00;95353.13;620177;226;32368;-76
2022/07/26 08:08:13;;;;;;;0.82;0.60;;;16.60;1.40;;;17.73;100.00;95356.42;618892;222;31885;-76
2022/07/26 08:10:55;;;;;;;1.37;0.80;;;16.50;1.40;;;17.69;100.00;95363.53;646220;212;31463;-77
2022/07/26 08:13:38;;;;;;;1.02;0.90;;;16.40;1.40;;;17.61;100.00;95366.53;646229;216;31777;-75
2022/07/26 08:16:26;;;;;;;0.88;0.88;;;16.40;1.40;;;17.63;100.00;95371.92;646980;212;31578;-75
2022/07/26 08:19:09;;;;;;;1.40;0.80;;;16.40;1.40;;;17.58;100.00;95369.31;618512;222;32368;-77
2022/07/26 08:21:57;;;;;;;0.80;0.80;;;16.30;1.40;;;17.56;100.00;95369.48;645971;216;31669;-75
2022/07/26 08:24:39;;;;;;;1.10;1.00;;;16.30;1.40;;;17.59;100.00;95372.08;646412;212;31628;-75
2022/07/26 08:30:07;;;;;;;0.80;0.75;;;16.40;1.40;;;17.70;100.00;95375.66;647380;216;31514;-75
2022/07/26 08:32:55;;;;;;;2.22;0.77;;;16.40;1.40;;;17.80;100.00;95372.16;630737;217;31701;-76
2022/07/26 08:35:51;;;;;;;1.70;1.20;;;16.50;1.40;;;17.82;100.00;95373.39;647663;216;31588;-76
2022/07/26 08:38:32;;;;;;;1.60;1.10;;;16.60;1.40;;;17.99;100.00;95368.39;646705;212;31969;-75
2022/07/26 08:41:21;;;;;;;1.35;0.90;;;16.70;1.40;;;18.12;100.00;95372.52;647708;216;31474;-77
2022/07/26 08:44:08;;;;;;;0.47;0.45;;;16.90;1.40;;;18.13;100.00;95372.97;647506;216;31550;-76
2022/07/26 08:46:56;;;;;;;0.60;0.60;;;16.80;1.40;;;17.99;100.00;95376.00;619419;226;31911;-76
2022/07/26 08:49:38;;;;;;;1.17;0.87;;;16.70;1.40;;;18.12;100.00;95379.68;646055;216;31568;-76
2022/07/26 08:52:19;;;;;;;0.60;0.60;;;16.80;1.40;;;18.27;100.00;95381.33;645627;216;31815;-75
2022/07/26 08:55:01;;;;;;;1.30;1.20;;;17.00;1.40;;;18.32;100.00;95388.63;646924;216;31605;-75
2022/07/26 08:59:21;;;;;;;0.88;0.70;;;17.00;1.40;;;18.67;100.00;95383.06;646514;216;31491;-77
2022/07/26 09:02:04;;;;;;;0.80;0.73;;;17.40;1.40;;;18.72;100.00;95385.16;646868;216;31555;-76
2022/07/26 09:04:45;;;;;;;1.20;0.77;;;17.20;1.40;;;18.66;100.00;95383.52;619529;222;32072;-76
2022/07/26 09:10:03;;;;;;;3.70;1.10;;;16.90;1.40;;;18.24;100.00;95381.00;619185;226;42507;-77
2022/07/26 09:12:44;;;;;;;0.85;0.65;;;16.80;1.40;;;18.30;100.00;95382.36;619149;222;31882;-76
2022/07/26 09:15:28;;;;;;;1.00;0.90;;;16.90;1.40;;;18.26;100.00;95386.97;646921;216;31554;-76
2022/07/26 09:21:01;;;;;;;0.55;0.50;;;17.00;1.40;;;18.32;100.00;95387.22;620081;222;31875;-77
2022/07/26 09:23:47;;;;;;;1.10;1.00;;;16.90;1.40;;;18.33;100.00;95388.41;645971;216;31527;-76
2022/07/26 09:26:36;;;;;;;2.65;0.60;;;16.90;1.40;;;18.40;100.00;95391.34;646567;216;31515;-76
2022/07/26 09:29:23;;;;;;;0.93;0.80;;;17.00;1.40;;;18.54;100.00;95389.64;645249;216;31490;-74
2022/07/26 09:32:10;;;;;;;0.80;0.80;;;17.30;1.40;;;18.74;100.00;95389.28;647598;216;31522;-76
2022/07/26 09:36:01;;;;;;;0.70;0.57;;;17.60;1.40;;;19.11;100.00;95390.97;647492;212;31715;-76
2022/07/26 09:38:47;;;;;;;1.27;1.17;;;17.80;1.40;;;19.75;100.00;95390.88;645898;216;31490;-76
2022/07/26 09:41:33;;;;;;;1.10;0.80;;;18.50;1.40;;;20.48;100.00;95393.33;617994;226;32024;-76
2022/07/26 09:44:22;;;;;;;1.52;1.10;;;18.80;1.40;;;20.53;100.00;95400.20;646850;212;42704;-76
2022/07/26 09:47:05;;;;;;;1.00;0.70;;;19.00;1.40;;;20.56;100.00;95397.56;647826;216;42368;-76
2022/07/26 09:49:47;;;;;;;1.00;0.90;;;19.10;1.40;;;20.70;100.00;95393.06;646933;212;31509;-76
2022/07/26 09:52:35;;;;;;;2.17;1.20;;;19.30;1.40;;;20.97;100.00;95386.81;645557;216;31876;-75
2022/07/26 09:55:22;;;;;;;1.60;1.30;;;19.90;1.40;;;21.48;100.00;95385.27;647563;216;31518;-77
2022/07/26 09:58:05;;;;;;;0.90;0.90;;;20.60;1.40;;;22.14;100.00;95386.91;646853;212;31510;-77
2022/07/26 10:00:49;;;;;;;1.52;1.08;;;21.80;1.40;;;22.09;100.00;95392.34;618422;222;31838;-77
2022/07/26 10:03:31;;;;;;;2.45;0.73;;;21.50;1.40;;;22.39;100.00;95391.75;647523;216;31530;-77
2022/07/26 10:06:19;;;;;;;1.02;0.52;;;21.70;1.40;;;22.81;100.00;95393.87;647029;216;31479;-75
2022/07/26 10:09:00;;;;;;;1.00;0.80;;;21.10;1.40;;;22.44;100.00;95392.46;646037;216;31527;-76
2022/07/26 10:12:01;;;;;;;1.12;0.80;;;20.50;1.40;;;21.96;100.00;95389.52;646434;212;42142;-75
2022/07/26 10:14:43;;;;;;;2.10;1.00;;;20.10;1.40;;;21.99;100.00;95388.18;646493;212;31522;-75
2022/07/26 10:17:42;;;;;;;0.90;0.90;;;20.30;1.40;;;21.74;100.00;95386.30;646614;212;31592;-76
2022/07/26 10:20:41;;;;;;;2.60;0.93;;;20.20;1.40;;;22.04;100.00;95380.28;645717;216;31501;-76
2022/07/26 10:23:47;;;;;;;0.90;0.80;;;20.90;1.40;;;22.70;100.00;95386.68;647140;216;31549;-75
2022/07/26 10:26:39;;;;;;;1.10;1.00;;;21.20;1.40;;;22.96;100.00;95389.81;619033;222;32109;-76
2022/07/26 10:29:22;;;;;;;2.78;1.00;;;21.30;1.40;;;23.15;100.00;95393.50;646487;212;31534;-75
2022/07/26 10:32:14;;;;;;;1.00;0.90;;;21.60;1.40;;;23.30;100.00;95395.11;645449;212;31538;-75
2022/07/26 10:35:57;;;;;;;1.33;0.80;;;22.10;1.40;;;23.40;100.00;95398.27;646337;216;31607;-75
2022/07/26 10:38:39;;;;;;;1.60;1.23;;;22.70;1.40;;;24.26;100.00;95394.55;647254;216;31482;-76
2022/07/26 10:41:21;;;;;;;2.10;1.20;;;24.40;1.40;;;25.16;100.00;95397.50;646846;216;31512;-75
2022/07/26 10:47:04;;;;;;;1.20;0.85;;;24.70;1.40;;;25.36;100.00;95402.72;646338;216;31482;-76
2022/07/26 10:49:58;;;;;;;1.02;0.82;;;23.80;1.40;;;25.08;100.00;95395.16;645663;216;31612;-76
2022/07/26 10:52:40;;;;;;;1.90;0.98;;;23.60;1.40;;;25.12;100.00;95396.84;644520;216;31676;-75
2022/07/26 10:55:22;;;;;;;0.98;0.88;;;23.40;1.40;;;25.54;100.00;95396.65;645839;216;42739;-76
2022/07/26 10:58:06;;;;;;;0.98;0.85;;;24.40;1.40;;;26.05;100.00;95401.88;647128;216;31624;-75
2022/07/26 11:00:56;;;;;;;1.20;1.10;;;24.60;1.40;;;25.61;100.00;95397.28;646116;216;31668;-75
2022/07/26 11:03:39;;;;;;;1.10;0.93;;;23.00;1.40;;;24.55;100.00;95398.03;646268;216;31625;-75
2022/07/26 11:06:20;;;;;;;1.30;0.90;;;22.30;1.40;;;24.75;100.00;95407.73;646439;216;31592;-75
2022/07/26 11:09:11;;;;;;;0.88;0.68;;;24.10;1.40;;;25.30;100.00;95406.75;646441;212;32026;-75
2022/07/26 11:11:52;;;;;;;1.67;1.00;;;24.10;1.40;;;24.97;100.00;95408.36;645972;216;31680;-75
2022/07/26 11:14:33;;;;;;;1.10;1.00;;;23.30;1.40;;;24.52;100.00;95400.04;646796;216;31516;-75
2022/07/26 11:17:26;;;;;;;1.00;0.82;;;23.00;1.40;;;24.59;100.00;95392.66;647639;216;31608;-75
2022/07/26 11:20:09;;;;;;;1.10;1.00;;;23.20;1.40;;;24.24;100.00;95392.77;646572;216;31508;-75
2022/07/26 11:22:51;;;;;;;1.40;0.80;;;22.40;1.40;;;23.95;100.00;95389.36;645609;216;31692;-75
2022/07/26 11:25:32;;;;;;;0.90;0.80;;;22.40;1.40;;;24.10;100.00;95388.02;647033;212;32680;-75
2022/07/26 11:28:14;;;;;;;1.70;0.80;;;22.80;1.40;;;24.85;100.00;95389.77;646301;216;31547;-75
2022/07/26 11:30:57;;;;;;;1.77;1.35;;;23.20;1.40;;;23.99;100.00;95393.70;618234;226;32020;-74
2022/07/26 11:35:51;;;;;;;1.50;1.03;;;22.00;1.40;;;23.55;100.00;95371.69;646066;216;42192;-75
2022/07/26 11:38:48;;;;;;;1.10;1.00;;;22.00;1.40;;;23.24;100.00;95373.05;646864;216;31547;-74
2022/07/26 11:41:30;;;;;;;1.80;0.93;;;21.60;1.40;;;22.96;100.00;95368.00;644789;216;31978;-75
2022/07/26 11:44:15;;;;;;;3.95;1.20;;;21.60;1.40;;;22.57;100.00;95380.55;646288;212;31571;-75
2022/07/26 11:46:59;;;;;;;1.10;0.90;;;21.10;1.40;;;22.58;100.00;95372.41;646750;212;31499;-74
2022/07/26 11:49:41;;;;;;;1.30;0.80;;;21.20;1.40;;;22.49;100.00;95377.33;645175;212;31563;-74
2022/07/26 11:55:02;;;;;;;0.88;0.80;;;21.20;1.40;;;22.33;100.00;95384.05;619652;225;32314;-75
2022/07/26 11:57:44;;;;;;;0.60;0.60;;;20.90;1.40;;;22.30;100.00;95381.25;619152;226;32440;-75
2022/07/26 12:00:26;;;;;;;1.20;1.10;;;20.90;1.40;;;22.17;100.00;95378.41;647193;216;31668;-74
2022/07/26 12:05:42;;;;;;;1.42;1.20;;;20.60;1.40;;;21.98;100.00;95371.59;646558;216;33918;-74
2022/07/26 12:08:24;;;;;;;1.77;1.10;;;20.70;1.40;;;22.08;100.00;95372.27;646588;216;42177;-74
2022/07/26 12:11:11;;;;;;;0.80;0.60;;;20.70;1.40;;;22.12;100.00;95367.81;619864;222;33555;-76